Terminal Aerodrome Forecast
Issued by NWS Grand Rapids, MI

Home | Current Version | Previous Version | Text Only | Print | Product List | Glossary On
Versions: 1 2 3 4 5 6 7 8 9 10 11 12 13 14 15 16 17 18 19 20 21 22 23 24 25 26 27 28
056
FTUS43 KGRR 232340
TAFGRR
TAF
KGRR 232340Z 2400/2424 36006KT 4SM -DZ BR OVC004
      TEMPO 2400/2404 1 1/2SM -DZ BR OVC002
     FM240400 35004KT 1/2SM -DZ FG OVC002
     FM241200 30007KT 2SM BR OVC006
     FM241700 29007KT 4SM BR OVC015=

USA.gov is the U.S. government's official web portal to all federal, state and local government web resources and services.